Time;durP1;ratioP1;P1;durP2;ratioP2;P2;SDS_P1;SDS_P2;PMS_P1;PMS_P2;Temp;Humidity;BMP_temperature;BMP_pressure;BME280_temperature;BME280_humidity;BME280_pressure;Samples;Min_cycle;Max_cycle;Signal;HPM_P1;HPM_P2
2021/09/22 00:02:14;;;;;;;9.38;4.22;;;;;;;;;;5060138;28;20387;-72
2021/09/22 00:04:40;;;;;;;11.30;4.32;;;;;;;;;;5064349;28;20067;-73
2021/09/22 00:07:06;;;;;;;13.10;4.65;;;;;;;;;;5066458;28;20036;-72
2021/09/22 00:09:32;;;;;;;11.40;4.60;;;;;;;;;;5066675;28;20052;-72
2021/09/22 00:11:58;;;;;;;9.68;4.72;;;;;;;;;;5061752;28;20036;-73
2021/09/22 00:14:24;;;;;;;12.07;4.70;;;;;;;;;;5067112;28;20111;-73
2021/09/22 00:16:50;;;;;;;9.70;4.43;;;;;;;;;;5067836;28;20031;-73
2021/09/22 00:19:16;;;;;;;13.52;5.13;;;;;;;;;;5066734;28;20111;-73
2021/09/22 00:21:42;;;;;;;8.65;4.35;;;;;;;;;;5067398;28;20098;-72
2021/09/22 00:24:08;;;;;;;11.15;4.55;;;;;;;;;;5067435;28;20024;-72
2021/09/22 00:26:33;;;;;;;15.65;4.50;;;;;;;;;;5070661;28;20025;-73
2021/09/22 00:28:59;;;;;;;7.88;3.90;;;;;;;;;;5069803;28;20052;-72
2021/09/22 00:31:25;;;;;;;19.77;4.38;;;;;;;;;;5067987;28;20029;-72
2021/09/22 00:33:51;;;;;;;12.30;4.53;;;;;;;;;;5067410;28;20145;-73
2021/09/22 00:36:17;;;;;;;14.10;4.47;;;;;;;;;;5069844;28;20028;-73
2021/09/22 00:38:43;;;;;;;12.20;4.57;;;;;;;;;;5068135;28;20026;-72
2021/09/22 00:41:09;;;;;;;16.92;4.53;;;;;;;;;;5067730;28;20533;-72
2021/09/22 00:43:35;;;;;;;12.27;4.68;;;;;;;;;;5070482;28;20101;-72
2021/09/22 00:46:04;;;;;;;9.73;4.18;;;;;;;;;;5069335;28;20027;-72
2021/09/22 00:48:31;;;;;;;16.92;4.22;;;;;;;;;;5070138;28;20059;-72
2021/09/22 00:50:57;;;;;;;14.95;4.63;;;;;;;;;;5069210;28;20024;-72
2021/09/22 00:53:23;;;;;;;14.48;4.70;;;;;;;;;;5070027;28;20594;-72
2021/09/22 00:55:51;;;;;;;9.63;4.40;;;;;;;;;;5066361;28;20107;-73
2021/09/22 00:58:17;;;;;;;16.83;5.32;;;;;;;;;;5066797;28;20055;-72
2021/09/22 01:00:43;;;;;;;16.75;4.53;;;;;;;;;;5066647;28;20028;-72
2021/09/22 01:03:12;;;;;;;11.57;4.65;;;;;;;;;;5068853;28;20441;-72
2021/09/22 01:05:38;;;;;;;15.88;5.20;;;;;;;;;;5069652;28;20116;-72
2021/09/22 01:08:05;;;;;;;15.15;4.68;;;;;;;;;;5069814;28;20058;-73
2021/09/22 01:10:31;;;;;;;19.02;5.93;;;;;;;;;;5062310;28;20048;-72
2021/09/22 01:12:58;;;;;;;16.40;4.70;;;;;;;;;;5066456;28;20028;-72
2021/09/22 01:15:26;;;;;;;12.68;4.25;;;;;;;;;;5058132;28;20033;-72
2021/09/22 01:17:52;;;;;;;12.00;4.97;;;;;;;;;;5068814;28;20119;-72
2021/09/22 01:20:18;;;;;;;17.30;4.72;;;;;;;;;;5065071;28;20092;-72
2021/09/22 01:22:44;;;;;;;11.00;4.35;;;;;;;;;;5066055;28;20131;-73
2021/09/22 01:25:12;;;;;;;18.08;4.63;;;;;;;;;;5068084;28;20491;-72
2021/09/22 01:27:47;;;;;;;13.40;5.00;;;;;;;;;;5069154;28;20035;-72
2021/09/22 01:30:13;;;;;;;10.18;4.15;;;;;;;;;;5068505;28;20060;-73
2021/09/22 01:32:47;;;;;;;13.90;5.25;;;;;;;;;;5060995;28;20036;-73
2021/09/22 01:35:13;;;;;;;12.63;4.30;;;;;;;;;;5063705;28;20021;-72
2021/09/22 01:37:39;;;;;;;12.02;3.78;;;;;;;;;;5068467;28;20032;-73
2021/09/22 01:40:05;;;;;;;11.63;3.53;;;;;;;;;;5069454;28;20410;-73
2021/09/22 01:42:31;;;;;;;11.75;4.03;;;;;;;;;;5068772;28;20158;-72
2021/09/22 01:44:57;;;;;;;11.02;3.92;;;;;;;;;;5067468;28;20123;-72
2021/09/22 01:47:23;;;;;;;12.65;4.53;;;;;;;;;;5059782;28;20432;-73
2021/09/22 01:49:49;;;;;;;14.35;3.45;;;;;;;;;;5068608;28;20028;-73
2021/09/22 01:52:15;;;;;;;16.35;3.75;;;;;;;;;;5067021;28;20479;-72
2021/09/22 01:54:41;;;;;;;12.38;3.67;;;;;;;;;;5066641;28;20025;-73
2021/09/22 01:57:07;;;;;;;13.05;3.55;;;;;;;;;;5063418;28;20544;-72
2021/09/22 01:59:32;;;;;;;11.30;3.58;;;;;;;;;;5063493;28;20030;-73
2021/09/22 02:01:58;;;;;;;10.18;3.60;;;;;;;;;;5066095;28;20198;-73
2021/09/22 02:04:24;;;;;;;15.93;3.60;;;;;;;;;;5055925;28;20036;-73
2021/09/22 02:06:50;;;;;;;21.58;3.55;;;;;;;;;;5069163;28;20056;-73
2021/09/22 02:09:16;;;;;;;14.07;4.32;;;;;;;;;;5065552;28;20091;-73
2021/09/22 02:11:42;;;;;;;14.00;3.45;;;;;;;;;;5067255;28;20387;-73
2021/09/22 02:14:08;;;;;;;10.85;3.42;;;;;;;;;;5068160;28;20024;-73
2021/09/22 02:16:34;;;;;;;12.05;2.97;;;;;;;;;;5068580;28;20028;-73
2021/09/22 02:19:00;;;;;;;11.95;3.38;;;;;;;;;;5067062;28;20138;-72
2021/09/22 02:21:26;;;;;;;12.48;2.92;;;;;;;;;;5067848;28;20032;-72
2021/09/22 02:23:51;;;;;;;22.83;4.13;;;;;;;;;;5067962;28;20032;-72
2021/09/22 02:26:17;;;;;;;14.73;3.38;;;;;;;;;;5053473;28;20024;-72
2021/09/22 02:28:43;;;;;;;10.90;3.33;;;;;;;;;;5061319;28;20024;-73
2021/09/22 02:31:09;;;;;;;12.90;3.45;;;;;;;;;;5067727;28;20109;-72
2021/09/22 02:33:35;;;;;;;10.27;2.97;;;;;;;;;;5067752;28;20067;-73
2021/09/22 02:36:01;;;;;;;18.48;3.40;;;;;;;;;;5067262;28;20438;-72
2021/09/22 02:38:27;;;;;;;15.40;3.28;;;;;;;;;;5067541;28;20028;-72
2021/09/22 02:40:53;;;;;;;10.63;2.95;;;;;;;;;;5067727;28;20497;-72
2021/09/22 02:43:19;;;;;;;10.43;3.10;;;;;;;;;;5064803;28;20090;-73
2021/09/22 02:45:45;;;;;;;15.65;3.60;;;;;;;;;;5066727;28;20542;-73
2021/09/22 02:48:11;;;;;;;17.67;3.15;;;;;;;;;;5067727;28;20379;-72
2021/09/22 02:50:37;;;;;;;11.40;3.03;;;;;;;;;;5067539;28;20029;-72
2021/09/22 02:53:03;;;;;;;21.13;3.95;;;;;;;;;;5067393;28;20483;-72
2021/09/22 02:55:28;;;;;;;19.23;3.67;;;;;;;;;;5067758;28;20036;-72
2021/09/22 02:57:54;;;;;;;11.68;3.17;;;;;;;;;;5067642;28;20032;-73
2021/09/22 03:00:20;;;;;;;13.23;3.17;;;;;;;;;;5066412;28;20549;-71
2021/09/22 03:02:46;;;;;;;16.90;3.40;;;;;;;;;;5067187;28;20082;-72
2021/09/22 03:05:12;;;;;;;10.48;3.15;;;;;;;;;;5065493;28;20027;-71
2021/09/22 03:07:38;;;;;;;19.13;3.65;;;;;;;;;;5067752;28;20594;-72
2021/09/22 03:10:04;;;;;;;9.57;3.67;;;;;;;;;;5062885;28;20475;-71
2021/09/22 03:12:30;;;;;;;14.25;3.92;;;;;;;;;;5066877;28;20033;-72
2021/09/22 03:14:57;;;;;;;15.50;2.92;;;;;;;;;;5065836;28;20029;-71
2021/09/22 03:17:23;;;;;;;16.02;3.30;;;;;;;;;;5066295;28;20434;-72
2021/09/22 03:19:48;;;;;;;22.67;3.17;;;;;;;;;;5063252;28;20101;-72
2021/09/22 03:22:14;;;;;;;12.82;3.72;;;;;;;;;;5065129;28;20028;-72
2021/09/22 03:24:40;;;;;;;18.30;3.47;;;;;;;;;;5067030;28;20074;-71
2021/09/22 03:27:06;;;;;;;7.90;2.50;;;;;;;;;;5067584;28;20090;-71
2021/09/22 03:29:32;;;;;;;10.77;2.67;;;;;;;;;;5067682;28;20036;-72
2021/09/22 03:31:58;;;;;;;12.27;2.72;;;;;;;;;;5066738;28;20091;-72
2021/09/22 03:34:24;;;;;;;13.95;2.90;;;;;;;;;;5065199;28;20033;-71
2021/09/22 03:36:50;;;;;;;15.80;3.33;;;;;;;;;;5067322;28;20032;-72
2021/09/22 03:39:16;;;;;;;16.73;3.70;;;;;;;;;;5067265;28;20029;-72
2021/09/22 03:41:42;;;;;;;13.15;3.05;;;;;;;;;;5065498;28;20039;-71
2021/09/22 03:44:07;;;;;;;16.33;2.55;;;;;;;;;;5068059;28;20033;-71
2021/09/22 03:46:34;;;;;;;13.45;2.90;;;;;;;;;;5066667;28;20035;-71
2021/09/22 03:49:00;;;;;;;11.18;3.08;;;;;;;;;;5066151;28;20028;-71
2021/09/22 03:51:26;;;;;;;18.25;2.90;;;;;;;;;;5063604;28;20029;-71
2021/09/22 03:53:52;;;;;;;12.27;2.65;;;;;;;;;;5060485;28;20029;-71
2021/09/22 03:56:18;;;;;;;17.13;2.85;;;;;;;;;;5065425;28;20013;-71
2021/09/22 03:58:44;;;;;;;9.30;2.85;;;;;;;;;;5067101;28;20052;-71
2021/09/22 04:01:12;;;;;;;13.75;2.90;;;;;;;;;;5070578;28;20052;-71
2021/09/22 04:03:38;;;;;;;13.90;3.67;;;;;;;;;;5070802;28;20025;-72
2021/09/22 04:06:04;;;;;;;20.13;3.97;;;;;;;;;;5070442;28;20150;-71
2021/09/22 04:08:30;;;;;;;13.38;3.10;;;;;;;;;;5065186;28;20607;-71
2021/09/22 04:10:56;;;;;;;20.33;3.42;;;;;;;;;;5063166;28;20120;-71
2021/09/22 04:13:22;;;;;;;19.75;3.45;;;;;;;;;;5067888;28;20032;-72
2021/09/22 04:15:48;;;;;;;14.23;3.13;;;;;;;;;;5070697;28;20078;-72
2021/09/22 04:18:14;;;;;;;16.10;3.58;;;;;;;;;;5070226;28;20021;-71
2021/09/22 04:20:40;;;;;;;18.42;3.80;;;;;;;;;;5069891;28;20411;-71
2021/09/22 04:23:05;;;;;;;16.08;3.38;;;;;;;;;;5070919;28;20021;-72
2021/09/22 04:25:31;;;;;;;15.80;3.45;;;;;;;;;;5068083;28;20512;-71
2021/09/22 04:27:57;;;;;;;10.57;3.28;;;;;;;;;;5068760;28;20115;-71
2021/09/22 04:30:23;;;;;;;18.02;3.53;;;;;;;;;;5070817;28;20475;-71
2021/09/22 04:32:49;;;;;;;16.15;2.90;;;;;;;;;;5070626;28;20040;-71
2021/09/22 04:35:15;;;;;;;13.30;3.03;;;;;;;;;;5069599;28;20593;-72
2021/09/22 04:37:41;;;;;;;14.20;2.70;;;;;;;;;;5069840;28;20583;-71
2021/09/22 04:40:11;;;;;;;16.45;3.17;;;;;;;;;;5070936;28;20478;-71
2021/09/22 04:42:37;;;;;;;11.73;2.95;;;;;;;;;;5065214;28;20060;-72
2021/09/22 04:45:03;;;;;;;12.27;3.00;;;;;;;;;;5069140;28;20056;-72
2021/09/22 04:47:29;;;;;;;12.65;2.72;;;;;;;;;;5068461;28;20032;-71
2021/09/22 04:49:59;;;;;;;14.48;3.05;;;;;;;;;;5068709;28;20035;-70
2021/09/22 04:52:25;;;;;;;9.07;2.05;;;;;;;;;;5068551;28;20025;-71
2021/09/22 04:54:51;;;;;;;12.30;2.80;;;;;;;;;;5069422;28;20092;-71
2021/09/22 04:57:16;;;;;;;15.93;3.35;;;;;;;;;;5069457;28;20376;-71
2021/09/22 04:59:42;;;;;;;14.63;3.28;;;;;;;;;;5068804;28;20036;-71
2021/09/22 05:02:08;;;;;;;18.58;3.72;;;;;;;;;;5066061;28;20029;-73
2021/09/22 05:04:34;;;;;;;14.70;2.75;;;;;;;;;;5065793;28;20024;-73
2021/09/22 05:07:00;;;;;;;17.15;2.85;;;;;;;;;;5067920;28;20036;-71
2021/09/22 05:09:26;;;;;;;8.65;3.15;;;;;;;;;;5068923;28;20028;-71
2021/09/22 05:11:54;;;;;;;21.60;3.30;;;;;;;;;;5069133;28;20440;-71
2021/09/22 05:14:20;;;;;;;16.17;4.85;;;;;;;;;;5069986;28;20024;-72
2021/09/22 05:16:46;;;;;;;14.23;3.75;;;;;;;;;;5055544;28;20020;-70
2021/09/22 05:19:12;;;;;;;24.60;3.20;;;;;;;;;;5062340;28;20017;-70
2021/09/22 05:21:38;;;;;;;14.02;3.65;;;;;;;;;;5068363;28;20082;-70
2021/09/22 05:24:04;;;;;;;18.38;2.95;;;;;;;;;;5069758;28;20021;-70
2021/09/22 05:26:30;;;;;;;17.92;3.42;;;;;;;;;;5068815;28;20028;-71
2021/09/22 05:28:56;;;;;;;15.32;3.88;;;;;;;;;;5069007;28;20380;-70
2021/09/22 05:31:22;;;;;;;19.27;3.95;;;;;;;;;;5068710;28;20036;-70
2021/09/22 05:33:47;;;;;;;15.68;3.65;;;;;;;;;;5063846;28;20089;-71
2021/09/22 05:36:13;;;;;;;14.98;2.78;;;;;;;;;;5069351;28;20073;-71
2021/09/22 05:38:39;;;;;;;14.15;3.47;;;;;;;;;;5068847;28;20071;-71
2021/09/22 05:41:05;;;;;;;16.10;3.60;;;;;;;;;;5069216;28;20020;-71
2021/09/22 05:43:31;;;;;;;14.85;3.63;;;;;;;;;;5065451;28;20721;-71
2021/09/22 05:45:57;;;;;;;12.80;3.72;;;;;;;;;;5064914;28;20081;-70
2021/09/22 05:48:23;;;;;;;21.80;3.75;;;;;;;;;;5062001;28;20033;-71
2021/09/22 05:50:49;;;;;;;16.15;3.67;;;;;;;;;;5066381;28;20032;-71
2021/09/22 05:53:15;;;;;;;19.92;4.05;;;;;;;;;;5067325;28;20139;-71
2021/09/22 05:55:41;;;;;;;17.33;3.15;;;;;;;;;;5061753;28;20034;-71
2021/09/22 05:58:06;;;;;;;19.35;3.47;;;;;;;;;;5069711;28;20056;-71
2021/09/22 06:00:32;;;;;;;12.20;3.00;;;;;;;;;;5043716;28;20074;-70
2021/09/22 06:02:58;;;;;;;10.80;3.28;;;;;;;;;;5054570;28;20522;-70
2021/09/22 06:05:24;;;;;;;14.07;3.35;;;;;;;;;;5075470;28;20119;-71
2021/09/22 06:07:50;;;;;;;16.02;3.28;;;;;;;;;;5066294;28;20394;-71
2021/09/22 06:10:16;;;;;;;17.20;3.47;;;;;;;;;;5061583;28;20024;-71
2021/09/22 06:12:42;;;;;;;20.23;4.00;;;;;;;;;;5066112;28;20032;-71
2021/09/22 06:15:08;;;;;;;12.52;3.45;;;;;;;;;;5067895;28;20056;-71
2021/09/22 06:17:34;;;;;;;14.07;3.20;;;;;;;;;;5066100;28;20055;-71
2021/09/22 06:20:00;;;;;;;15.10;3.00;;;;;;;;;;5068509;28;20242;-71
2021/09/22 06:22:26;;;;;;;14.60;3.58;;;;;;;;;;5069866;28;20047;-71
2021/09/22 06:24:52;;;;;;;17.55;3.75;;;;;;;;;;5071741;28;20028;-71
2021/09/22 06:27:19;;;;;;;11.23;3.85;;;;;;;;;;5071196;28;20037;-71
2021/09/22 06:29:45;;;;;;;17.40;4.13;;;;;;;;;;5075178;28;20024;-71
2021/09/22 06:32:11;;;;;;;15.40;3.92;;;;;;;;;;5068399;28;20467;-71
2021/09/22 06:34:36;;;;;;;17.83;4.40;;;;;;;;;;5063184;28;20029;-70
2021/09/22 06:37:02;;;;;;;15.57;3.53;;;;;;;;;;5057327;28;20070;-71
2021/09/22 06:39:28;;;;;;;16.35;3.60;;;;;;;;;;5067334;28;20243;-71
2021/09/22 06:41:55;;;;;;;14.48;3.20;;;;;;;;;;5066184;28;20122;-71
2021/09/22 06:44:21;;;;;;;18.05;3.33;;;;;;;;;;5067653;28;20433;-71
2021/09/22 06:46:47;;;;;;;18.05;3.92;;;;;;;;;;5064094;28;20032;-72
2021/09/22 06:49:13;;;;;;;15.80;3.25;;;;;;;;;;5064295;28;20170;-71
2021/09/22 06:51:39;;;;;;;18.30;3.75;;;;;;;;;;5067389;28;20012;-70
2021/09/22 06:54:05;;;;;;;14.50;3.85;;;;;;;;;;5067343;28;20020;-74
2021/09/22 06:56:30;;;;;;;13.52;3.70;;;;;;;;;;5064170;28;20024;-70
2021/09/22 06:58:56;;;;;;;15.25;3.95;;;;;;;;;;5060117;28;20470;-71
2021/09/22 07:01:22;;;;;;;32.22;4.15;;;;;;;;;;5068491;28;20039;-71
2021/09/22 07:03:48;;;;;;;13.25;3.35;;;;;;;;;;5062632;28;20103;-70
2021/09/22 07:06:14;;;;;;;11.55;2.95;;;;;;;;;;5065458;28;20618;-71
2021/09/22 07:08:40;;;;;;;11.75;3.70;;;;;;;;;;5067322;28;20035;-71
2021/09/22 07:11:07;;;;;;;17.23;3.50;;;;;;;;;;5066535;28;20032;-72
2021/09/22 07:13:36;;;;;;;23.48;3.95;;;;;;;;;;5078508;28;20028;-73
2021/09/22 07:16:02;;;;;;;20.13;4.47;;;;;;;;;;5061768;28;20123;-73
2021/09/22 07:18:28;;;;;;;19.83;3.65;;;;;;;;;;5066276;28;20024;-73
2021/09/22 07:20:54;;;;;;;20.73;3.28;;;;;;;;;;5064457;28;20039;-74
2021/09/22 07:23:20;;;;;;;22.65;3.60;;;;;;;;;;5060995;28;20049;-73
2021/09/22 07:25:46;;;;;;;14.50;3.85;;;;;;;;;;5066122;28;20118;-73
2021/09/22 07:28:12;;;;;;;14.35;3.58;;;;;;;;;;5065917;28;20495;-73
2021/09/22 07:30:38;;;;;;;15.25;2.97;;;;;;;;;;5071029;28;20052;-74
2021/09/22 07:33:06;;;;;;;14.63;2.90;;;;;;;;;;5065336;28;20028;-73
2021/09/22 07:35:31;;;;;;;17.92;3.35;;;;;;;;;;5071273;28;20043;-73
2021/09/22 07:38:22;;;;;;;11.75;3.20;;;;;;;;;;5071637;28;20029;-73
2021/09/22 07:40:49;;;;;;;14.48;3.22;;;;;;;;;;5057544;28;20028;-73
2021/09/22 07:43:15;;;;;;;13.45;2.67;;;;;;;;;;5069209;28;20472;-73
2021/09/22 07:45:41;;;;;;;14.50;3.10;;;;;;;;;;5071492;28;20106;-73
2021/09/22 07:48:07;;;;;;;17.20;3.20;;;;;;;;;;5063354;28;20028;-73
2021/09/22 07:50:34;;;;;;;19.67;2.65;;;;;;;;;;5070153;28;20499;-73
2021/09/22 07:53:00;;;;;;;11.35;2.85;;;;;;;;;;5069671;28;20028;-73
2021/09/22 07:55:26;;;;;;;14.07;2.72;;;;;;;;;;5061114;28;20081;-73
2021/09/22 07:57:54;;;;;;;14.75;3.33;;;;;;;;;;5070992;28;20056;-72
2021/09/22 08:00:20;;;;;;;18.13;3.28;;;;;;;;;;5062505;28;20391;-74
2021/09/22 08:02:46;;;;;;;21.08;3.63;;;;;;;;;;5070180;28;20036;-73
2021/09/22 08:05:12;;;;;;;18.63;4.03;;;;;;;;;;5069416;28;20021;-72
2021/09/22 08:07:38;;;;;;;18.80;3.03;;;;;;;;;;5070087;28;20027;-73
2021/09/22 08:10:04;;;;;;;9.32;3.30;;;;;;;;;;5065755;28;20028;-74
2021/09/22 08:12:30;;;;;;;16.80;3.47;;;;;;;;;;5068327;28;20036;-73
2021/09/22 08:14:56;;;;;;;18.75;3.83;;;;;;;;;;5070118;28;20040;-73
2021/09/22 08:17:23;;;;;;;17.92;4.70;;;;;;;;;;5062241;28;20025;-73
2021/09/22 08:19:49;;;;;;;22.35;4.15;;;;;;;;;;5070041;28;20039;-73
2021/09/22 08:22:15;;;;;;;13.43;3.50;;;;;;;;;;5060871;28;20021;-73
2021/09/22 08:24:41;;;;;;;14.07;4.05;;;;;;;;;;5069363;28;20032;-73
2021/09/22 08:27:06;;;;;;;18.95;3.63;;;;;;;;;;5070780;28;20029;-73
2021/09/22 08:29:33;;;;;;;23.27;3.58;;;;;;;;;;5070489;28;20025;-73
2021/09/22 08:31:59;;;;;;;20.85;3.90;;;;;;;;;;5069093;28;20031;-73
2021/09/22 08:34:25;;;;;;;16.60;4.15;;;;;;;;;;5070651;28;20099;-72
2021/09/22 08:36:52;;;;;;;21.58;4.35;;;;;;;;;;5068517;28;20037;-73
2021/09/22 08:39:18;;;;;;;16.52;3.53;;;;;;;;;;5070775;28;20055;-73
2021/09/22 08:41:44;;;;;;;18.85;4.07;;;;;;;;;;5069341;28;20020;-72
2021/09/22 08:44:11;;;;;;;17.55;3.88;;;;;;;;;;5059201;28;20085;-73
2021/09/22 08:46:41;;;;;;;12.50;2.88;;;;;;;;;;5069024;28;20020;-73
2021/09/22 08:49:07;;;;;;;14.23;3.00;;;;;;;;;;5059734;28;20025;-73
2021/09/22 08:51:33;;;;;;;18.42;3.30;;;;;;;;;;5070292;28;20675;-73
2021/09/22 08:53:59;;;;;;;18.45;3.20;;;;;;;;;;5069420;28;20039;-73
2021/09/22 08:56:26;;;;;;;11.00;3.40;;;;;;;;;;5069413;28;20036;-72
2021/09/22 08:58:52;;;;;;;15.98;3.50;;;;;;;;;;5067424;28;20052;-73
2021/09/22 09:01:22;;;;;;;15.38;2.78;;;;;;;;;;5065432;28;20040;-73
2021/09/22 09:03:49;;;;;;;21.60;3.70;;;;;;;;;;5069874;28;20502;-74
2021/09/22 09:06:25;;;;;;;25.58;3.33;;;;;;;;;;5069626;28;20200;-73
2021/09/22 09:08:53;;;;;;;18.75;3.90;;;;;;;;;;5070150;28;20150;-74
2021/09/22 09:11:30;;;;;;;13.48;2.67;;;;;;;;;;5068653;28;20107;-73
2021/09/22 09:13:56;;;;;;;13.70;2.85;;;;;;;;;;5057424;28;20119;-73
2021/09/22 09:16:24;;;;;;;16.90;3.45;;;;;;;;;;5070313;28;20487;-73
2021/09/22 09:18:51;;;;;;;17.50;3.85;;;;;;;;;;5068519;28;20379;-73
2021/09/22 09:21:17;;;;;;;10.98;2.42;;;;;;;;;;5067162;28;20170;-73
2021/09/22 09:23:54;;;;;;;15.07;3.15;;;;;;;;;;5069388;28;20106;-73
2021/09/22 09:26:21;;;;;;;13.52;3.22;;;;;;;;;;5070022;28;20027;-73
2021/09/22 09:28:55;;;;;;;22.55;3.47;;;;;;;;;;5069643;28;20024;-73
2021/09/22 09:31:21;;;;;;;15.20;3.33;;;;;;;;;;5067204;28;20025;-73
2021/09/22 09:33:56;;;;;;;14.65;3.53;;;;;;;;;;5069542;28;20029;-73
2021/09/22 09:36:25;;;;;;;22.80;2.72;;;;;;;;;;5069732;28;20032;-72
2021/09/22 09:39:09;;;;;;;14.65;3.05;;;;;;;;;;5065621;28;20047;-73
2021/09/22 09:41:45;;;;;;;13.55;2.65;;;;;;;;;;5069661;28;20103;-73
2021/09/22 09:44:12;;;;;;;15.88;2.78;;;;;;;;;;5051852;28;20362;-73
2021/09/22 09:46:38;;;;;;;13.68;2.45;;;;;;;;;;5065574;28;20048;-73
2021/09/22 09:49:09;;;;;;;15.45;3.00;;;;;;;;;;5066925;28;20027;-73
2021/09/22 09:51:36;;;;;;;20.98;3.15;;;;;;;;;;5068893;28;20039;-73
2021/09/22 09:54:06;;;;;;;10.60;2.20;;;;;;;;;;5067409;28;20055;-73
2021/09/22 09:56:33;;;;;;;16.48;2.20;;;;;;;;;;5068636;28;20039;-73
2021/09/22 09:59:00;;;;;;;17.10;3.40;;;;;;;;;;5068061;28;20119;-74
2021/09/22 10:01:40;;;;;;;17.27;2.97;;;;;;;;;;5066262;28;20025;-73
2021/09/22 10:04:06;;;;;;;11.07;3.10;;;;;;;;;;5069000;28;20486;-73
2021/09/22 10:06:32;;;;;;;13.77;2.85;;;;;;;;;;5066816;28;20193;-73
2021/09/22 10:08:58;;;;;;;11.43;3.05;;;;;;;;;;5068044;28;20741;-74
2021/09/22 10:11:25;;;;;;;13.00;3.25;;;;;;;;;;5059911;28;20047;-73
2021/09/22 10:13:52;;;;;;;9.40;2.00;;;;;;;;;;5068821;28;20028;-73
2021/09/22 10:16:18;;;;;;;15.25;2.33;;;;;;;;;;5066079;28;20028;-73
2021/09/22 10:18:44;;;;;;;12.65;2.40;;;;;;;;;;5068719;28;20347;-74
2021/09/22 10:21:12;;;;;;;11.23;2.50;;;;;;;;;;5066537;28;20101;-73
2021/09/22 10:23:38;;;;;;;19.15;2.70;;;;;;;;;;5067787;28;20093;-73
2021/09/22 10:26:04;;;;;;;13.23;2.08;;;;;;;;;;5068558;28;20032;-73
2021/09/22 10:28:37;;;;;;;11.15;2.53;;;;;;;;;;5062272;28;20028;-73
2021/09/22 10:31:03;;;;;;;12.27;2.65;;;;;;;;;;5061027;28;20021;-73
2021/09/22 10:33:31;;;;;;;16.42;2.60;;;;;;;;;;5066572;28;20452;-74
2021/09/22 10:36:02;;;;;;;17.80;2.53;;;;;;;;;;5067863;28;20158;-72
2021/09/22 10:38:28;;;;;;;13.82;2.40;;;;;;;;;;5066277;28;20035;-74
2021/09/22 10:40:54;;;;;;;16.15;3.13;;;;;;;;;;5061398;28;20433;-73
2021/09/22 10:43:21;;;;;;;17.20;3.40;;;;;;;;;;5068476;28;20025;-72
2021/09/22 10:46:06;;;;;;;13.93;3.20;;;;;;;;;;5068069;28;20032;-73
2021/09/22 10:48:33;;;;;;;12.27;2.33;;;;;;;;;;5067025;28;20454;-73
2021/09/22 10:51:02;;;;;;;13.68;2.50;;;;;;;;;;5067716;28;20025;-73
2021/09/22 10:53:31;;;;;;;8.52;2.30;;;;;;;;;;5067939;28;20246;-73
2021/09/22 10:56:00;;;;;;;13.80;2.72;;;;;;;;;;5066392;28;20082;-73
2021/09/22 10:58:31;;;;;;;11.30;2.45;;;;;;;;;;5064684;28;20518;-73
2021/09/22 11:00:57;;;;;;;;;;;;;;;;;;5059063;28;20032;-73
2021/09/22 11:03:41;;;;;;;14.48;3.10;;;;;;;;;;5068282;28;19912;-73
2021/09/22 11:06:27;;;;;;;8.23;2.47;;;;;;;;;;5067911;28;20067;-74
2021/09/22 11:09:02;;;;;;;13.35;2.75;;;;;;;;;;5057080;28;20056;-73
2021/09/22 11:11:48;;;;;;;12.43;2.72;;;;;;;;;;5063570;28;20111;-74
2021/09/22 11:14:33;;;;;;;15.15;2.85;;;;;;;;;;5059094;28;20644;-73
2021/09/22 11:16:59;;;;;;;14.65;3.38;;;;;;;;;;5067196;28;20062;-73
2021/09/22 11:19:25;;;;;;;14.45;2.78;;;;;;;;;;5065394;28;20469;-74
2021/09/22 11:21:51;;;;;;;10.10;2.28;;;;;;;;;;5067782;28;20017;-73
2021/09/22 11:24:18;;;;;;;8.82;2.38;;;;;;;;;;5067147;28;20086;-74
2021/09/22 11:27:04;;;;;;;15.20;2.33;;;;;;;;;;5067428;28;20491;-74
2021/09/22 11:29:31;;;;;;;11.73;2.78;;;;;;;;;;5066922;28;20029;-74
2021/09/22 11:31:57;;;;;;;14.32;2.72;;;;;;;;;;5056908;28;20071;-73
2021/09/22 11:34:27;;;;;;;14.75;2.35;;;;;;;;;;5067925;28;20021;-74
2021/09/22 11:37:07;;;;;;;11.07;2.50;;;;;;;;;;5067347;28;20024;-73
2021/09/22 11:39:32;;;;;;;12.40;2.63;;;;;;;;;;5067335;28;20020;-74
2021/09/22 11:41:58;;;;;;;6.80;1.77;;;;;;;;;;5064938;28;20078;-73
2021/09/22 11:44:28;;;;;;;14.43;2.25;;;;;;;;;;5067573;28;20054;-74
2021/09/22 11:46:55;;;;;;;13.13;2.97;;;;;;;;;;5066885;28;20016;-74
2021/09/22 11:49:21;;;;;;;14.20;2.17;;;;;;;;;;5067716;28;20364;-74
2021/09/22 11:52:02;;;;;;;7.18;2.15;;;;;;;;;;5062071;28;20070;-74
2021/09/22 11:54:29;;;;;;;11.18;2.10;;;;;;;;;;5064599;28;20024;-75
2021/09/22 11:57:03;;;;;;;9.43;2.20;;;;;;;;;;5066780;28;20024;-74
2021/09/22 11:59:35;;;;;;;11.57;2.30;;;;;;;;;;5066955;28;20031;-74
2021/09/22 12:02:01;;;;;;;18.63;2.63;;;;;;;;;;5063437;28;20013;-74
2021/09/22 12:04:41;;;;;;;13.68;2.42;;;;;;;;;;5062491;28;20055;-74
2021/09/22 12:07:08;;;;;;;9.90;2.55;;;;;;;;;;5067021;28;20029;-74
2021/09/22 12:09:43;;;;;;;13.63;2.70;;;;;;;;;;5066355;28;20078;-75
2021/09/22 12:12:17;;;;;;;10.32;2.22;;;;;;;;;;5063281;28;20482;-74
2021/09/22 12:14:53;;;;;;;13.32;3.00;;;;;;;;;;5066760;28;20039;-74
2021/09/22 12:17:20;;;;;;;12.35;2.05;;;;;;;;;;5064176;28;20049;-73
2021/09/22 12:19:46;;;;;;;8.27;2.00;;;;;;;;;;5066900;28;20609;-74
2021/09/22 12:22:13;;;;;;;12.20;2.55;;;;;;;;;;5059896;28;20036;-74
2021/09/22 12:24:40;;;;;;;8.15;1.80;;;;;;;;;;5070258;28;20024;-74
2021/09/22 12:27:18;;;;;;;7.32;1.80;;;;;;;;;;5070817;28;20025;-74
2021/09/22 12:29:51;;;;;;;10.02;2.67;;;;;;;;;;5062285;28;20028;-73
2021/09/22 12:32:17;;;;;;;9.27;2.65;;;;;;;;;;5068520;28;20032;-74
2021/09/22 12:34:44;;;;;;;5.93;2.03;;;;;;;;;;5070385;28;20044;-73
2021/09/22 12:37:14;;;;;;;11.90;2.42;;;;;;;;;;5070176;28;20036;-73
2021/09/22 12:39:50;;;;;;;12.45;2.15;;;;;;;;;;5068442;28;20104;-73
2021/09/22 12:42:16;;;;;;;9.90;1.75;;;;;;;;;;5065300;28;20539;-74
2021/09/22 12:44:59;;;;;;;11.68;2.65;;;;;;;;;;5069730;28;20116;-73
2021/09/22 12:47:26;;;;;;;11.95;2.17;;;;;;;;;;5061155;28;20021;-74
2021/09/22 12:50:10;;;;;;;6.22;2.20;;;;;;;;;;5068215;28;20052;-74
2021/09/22 12:52:36;;;;;;;13.45;2.55;;;;;;;;;;5061722;28;20031;-74
2021/09/22 12:55:17;;;;;;;7.78;2.10;;;;;;;;;;5068928;28;20441;-74
2021/09/22 12:57:44;;;;;;;9.47;2.30;;;;;;;;;;5069418;28;20044;-74
2021/09/22 13:00:28;;;;;;;14.40;2.58;;;;;;;;;;5069680;28;20027;-74
2021/09/22 13:03:06;;;;;;;9.60;2.47;;;;;;;;;;5068673;28;20048;-74
2021/09/22 13:05:36;;;;;;;8.57;2.15;;;;;;;;;;5069993;28;20111;-74
2021/09/22 13:08:02;;;;;;;10.32;2.03;;;;;;;;;;5056280;28;20114;-74
2021/09/22 13:10:28;;;;;;;9.73;2.28;;;;;;;;;;5066621;28;20523;-73
2021/09/22 13:12:54;;;;;;;9.27;2.17;;;;;;;;;;5066400;28;20031;-74
2021/09/22 13:15:27;;;;;;;7.70;2.00;;;;;;;;;;5069923;28;20028;-74
2021/09/22 13:17:53;;;;;;;9.10;2.05;;;;;;;;;;5069874;28;20020;-74
2021/09/22 13:20:19;;;;;;;8.43;1.95;;;;;;;;;;5050854;28;20032;-74
2021/09/22 13:22:45;;;;;;;14.45;2.55;;;;;;;;;;5069594;28;20024;-74
2021/09/22 13:25:10;;;;;;;8.43;1.73;;;;;;;;;;5069562;28;20027;-74
2021/09/22 13:27:36;;;;;;;9.13;1.77;;;;;;;;;;5070024;28;20475;-74
2021/09/22 13:30:03;;;;;;;9.55;2.33;;;;;;;;;;5066848;28;20039;-74
2021/09/22 13:32:28;;;;;;;11.15;2.40;;;;;;;;;;5068770;28;20020;-73
2021/09/22 13:34:56;;;;;;;9.40;1.95;;;;;;;;;;5069706;28;20098;-74
2021/09/22 13:37:22;;;;;;;14.80;2.25;;;;;;;;;;5069705;28;20051;-73
2021/09/22 13:39:48;;;;;;;7.25;2.20;;;;;;;;;;5069561;28;20044;-74
2021/09/22 13:42:14;;;;;;;9.15;2.13;;;;;;;;;;5067490;28;20024;-74
2021/09/22 13:44:40;;;;;;;10.73;1.92;;;;;;;;;;5069103;28;20055;-75
2021/09/22 13:47:06;;;;;;;14.02;2.08;;;;;;;;;;5067886;28;20383;-74
2021/09/22 13:49:32;;;;;;;12.15;2.60;;;;;;;;;;5066947;28;20115;-74
2021/09/22 13:51:58;;;;;;;14.52;2.13;;;;;;;;;;5066923;28;20028;-74
2021/09/22 13:54:24;;;;;;;11.18;2.15;;;;;;;;;;5069196;28;20024;-74
2021/09/22 13:56:49;;;;;;;9.77;2.10;;;;;;;;;;5068516;28;20095;-73
2021/09/22 13:59:15;;;;;;;10.02;2.08;;;;;;;;;;5068280;28;20125;-74
2021/09/22 14:01:42;;;;;;;7.45;1.60;;;;;;;;;;5067325;28;20020;-74
2021/09/22 14:04:08;;;;;;;14.35;1.80;;;;;;;;;;5064735;28;20020;-74
2021/09/22 14:06:34;;;;;;;8.57;1.73;;;;;;;;;;5068956;28;20021;-74
2021/09/22 14:09:00;;;;;;;8.93;1.98;;;;;;;;;;5068517;28;20024;-74
2021/09/22 14:11:29;;;;;;;8.13;1.90;;;;;;;;;;5065004;28;20424;-74
2021/09/22 14:13:55;;;;;;;11.43;1.92;;;;;;;;;;5068094;28;20036;-74
2021/09/22 14:16:21;;;;;;;7.68;1.88;;;;;;;;;;5068463;28;20035;-73
2021/09/22 14:18:47;;;;;;;12.85;2.92;;;;;;;;;;5068452;28;20021;-74
2021/09/22 14:21:12;;;;;;;7.57;1.83;;;;;;;;;;5062423;28;20051;-74
2021/09/22 14:23:38;;;;;;;9.40;1.55;;;;;;;;;;5064986;28;20025;-73
2021/09/22 14:26:06;;;;;;;11.88;2.58;;;;;;;;;;5066972;28;20052;-73
2021/09/22 14:28:31;;;;;;;10.35;2.08;;;;;;;;;;5068543;28;20024;-72
2021/09/22 14:30:57;;;;;;;6.18;1.80;;;;;;;;;;5067049;28;20430;-72
2021/09/22 14:33:23;;;;;;;5.32;1.80;;;;;;;;;;5062198;28;20094;-72
2021/09/22 14:35:49;;;;;;;10.25;1.98;;;;;;;;;;5065878;28;20395;-71